createdAt,value
2022-11-29T00:00:41.114Z,1.41
2022-11-29T00:03:07.737Z,1.54
2022-11-29T00:05:34.738Z,1.47
2022-11-29T00:08:01.134Z,1.42
2022-11-29T00:10:27.582Z,1.39
2022-11-29T00:12:53.974Z,1.37
2022-11-29T00:15:20.485Z,1.35
2022-11-29T00:17:46.891Z,1.51
2022-11-29T00:20:13.449Z,1.51
2022-11-29T00:22:39.903Z,1.46
2022-11-29T00:25:06.759Z,1.43
2022-11-29T00:27:33.291Z,1.38
2022-11-29T00:29:59.777Z,1.38
2022-11-29T00:32:26.297Z,1.39
2022-11-29T00:34:52.729Z,1.55
2022-11-29T00:37:21.382Z,1.46
2022-11-29T00:39:47.817Z,1.43
2022-11-29T00:42:15.861Z,1.45
2022-11-29T00:44:42.702Z,1.36
2022-11-29T00:47:09.491Z,1.36
2022-11-29T00:49:35.930Z,1.47
2022-11-29T00:52:02.375Z,1.52
2022-11-29T00:54:28.768Z,1.46
2022-11-29T00:56:55.249Z,1.40
2022-11-29T00:59:21.685Z,1.42
2022-11-29T01:01:48.202Z,1.44
2022-11-29T01:04:14.663Z,1.58
2022-11-29T01:06:41.133Z,1.60
2022-11-29T01:09:07.751Z,1.50
2022-11-29T01:11:34.789Z,1.46
2022-11-29T01:14:01.987Z,1.45
2022-11-29T01:16:30.326Z,1.46
2022-11-29T01:18:56.866Z,1.53
2022-11-29T01:21:24.485Z,1.55
2022-11-29T01:23:52.077Z,1.51
2022-11-29T01:26:20.507Z,1.49
2022-11-29T01:28:48.479Z,1.45
2022-11-29T01:31:16.730Z,1.49
2022-11-29T01:33:43.668Z,1.54
2022-11-29T01:36:10.823Z,1.62
2022-11-29T01:38:39.053Z,1.56
2022-11-29T01:41:06.735Z,1.52
2022-11-29T01:43:33.644Z,1.47
2022-11-29T01:46:00.226Z,1.46
2022-11-29T01:48:29.302Z,1.51
2022-11-29T01:51:00.672Z,1.64
2022-11-29T01:53:27.749Z,1.55
2022-11-29T01:55:56.211Z,1.51
2022-11-29T01:58:22.783Z,1.51
2022-11-29T02:00:49.486Z,1.49
2022-11-29T02:03:16.798Z,1.53
2022-11-29T02:05:44.846Z,1.64
2022-11-29T02:08:13.494Z,1.61
2022-11-29T02:10:42.679Z,1.59
2022-11-29T02:13:13.935Z,1.57
2022-11-29T02:15:46.725Z,1.55
2022-11-29T02:18:15.555Z,1.55
2022-11-29T02:21:00.610Z,1.62
2022-11-29T02:23:40.711Z,1.68
2022-11-29T02:26:21.446Z,1.68
2022-11-29T02:29:06.533Z,1.66
2022-11-29T02:31:47.933Z,1.62
2022-11-29T02:34:14.350Z,1.61
2022-11-29T02:36:53.179Z,1.65
2022-11-29T02:39:39.203Z,1.77
2022-11-29T02:42:24.261Z,1.73
2022-11-29T02:44:53.905Z,1.71
2022-11-29T02:47:23.077Z,1.70
2022-11-29T02:49:49.496Z,1.69
2022-11-29T02:52:25.669Z,1.70
2022-11-29T02:54:59.069Z,1.84
2022-11-29T02:57:44.430Z,1.80
2022-11-29T03:00:16.142Z,1.74
2022-11-29T03:02:48.430Z,1.73
2022-11-29T03:05:33.537Z,1.74
2022-11-29T03:08:00.003Z,1.76
2022-11-29T03:10:29.253Z,1.85
2022-11-29T03:12:55.786Z,1.83
2022-11-29T03:15:25.165Z,1.84
2022-11-29T03:18:02.831Z,1.81
2022-11-29T03:20:37.608Z,1.76
2022-11-29T03:23:12.126Z,1.78
2022-11-29T03:25:38.501Z,1.79
2022-11-29T03:28:10.635Z,1.87
2022-11-29T03:30:38.486Z,1.88
2022-11-29T03:33:10.219Z,1.88
2022-11-29T03:35:55.230Z,1.86
2022-11-29T03:38:21.757Z,1.82
2022-11-29T03:40:53.033Z,1.81
2022-11-29T03:43:26.705Z,1.86
2022-11-29T03:46:06.093Z,1.92
2022-11-29T03:48:43.743Z,1.89
2022-11-29T03:51:19.770Z,1.86
2022-11-29T03:54:01.990Z,1.83
2022-11-29T03:56:35.984Z,1.84
2022-11-29T03:59:05.546Z,1.85
2022-11-29T04:01:40.914Z,1.85
2022-11-29T04:04:16.222Z,1.92
2022-11-29T04:06:53.706Z,1.88
2022-11-29T04:09:30.093Z,1.88
2022-11-29T04:12:04.149Z,1.89
2022-11-29T04:14:49.007Z,1.89
2022-11-29T04:17:24.862Z,1.88
2022-11-29T04:19:51.308Z,1.91
2022-11-29T04:22:17.828Z,1.97
2022-11-29T04:24:56.936Z,1.95
2022-11-29T04:27:26.491Z,1.93
2022-11-29T04:30:08.919Z,1.91
2022-11-29T04:32:54.155Z,1.90
2022-11-29T04:35:41.622Z,1.87
2022-11-29T04:38:19.971Z,1.89
2022-11-29T04:40:52.140Z,1.91
2022-11-29T04:43:21.701Z,1.98
2022-11-29T04:46:07.061Z,2.01
2022-11-29T04:48:39.669Z,2.03
2022-11-29T04:51:22.370Z,1.99
2022-11-29T04:53:52.054Z,2.00
2022-11-29T04:56:38.018Z,2.00
2022-11-29T04:59:09.009Z,1.98
2022-11-29T05:01:37.715Z,1.98
2022-11-29T05:04:23.457Z,1.99
2022-11-29T05:06:54.979Z,2.03
2022-11-29T05:09:35.921Z,2.08
2022-11-29T05:12:20.962Z,2.04
2022-11-29T05:14:47.456Z,1.99
2022-11-29T05:17:32.526Z,2.01
2022-11-29T05:20:08.209Z,2.11
2022-11-29T05:22:40.911Z,2.12
2022-11-29T05:25:21.714Z,2.14
2022-11-29T05:27:58.488Z,1.94
2022-11-29T05:30:32.445Z,1.60
2022-11-29T05:33:24.938Z,1.47
2022-11-29T05:35:59.974Z,1.63
2022-11-29T05:38:29.374Z,1.68
2022-11-29T05:41:11.626Z,1.48
2022-11-29T05:43:52.335Z,1.49
2022-11-29T05:46:18.850Z,1.67
2022-11-29T05:48:52.101Z,1.57
2022-11-29T05:51:24.603Z,1.49
2022-11-29T05:53:58.019Z,1.45
2022-11-29T05:56:36.526Z,1.45
2022-11-29T05:59:29.393Z,1.44
2022-11-29T06:01:56.379Z,1.52
2022-11-29T06:04:41.603Z,1.51
2022-11-29T06:07:34.325Z,1.44
2022-11-29T06:10:04.297Z,1.38
2022-11-29T06:12:35.861Z,1.38
2022-11-29T06:15:11.823Z,1.40
2022-11-29T06:17:48.895Z,1.58
2022-11-29T06:20:34.221Z,1.49
2022-11-29T06:23:02.021Z,1.47
2022-11-29T06:25:41.998Z,1.43
2022-11-29T06:28:27.609Z,1.42
2022-11-29T06:31:03.440Z,1.45
2022-11-29T06:33:37.755Z,1.61
2022-11-29T06:36:06.509Z,1.48
2022-11-29T06:38:34.713Z,1.40
2022-11-29T06:41:02.316Z,1.38
2022-11-29T06:43:31.634Z,1.37
2022-11-29T06:46:04.055Z,1.43
2022-11-29T06:48:35.053Z,1.54
2022-11-29T06:51:13.249Z,1.44
2022-11-29T06:53:54.293Z,1.37
2022-11-29T06:56:34.619Z,1.36
2022-11-29T06:59:06.997Z,1.39
2022-11-29T07:01:45.037Z,1.51
2022-11-29T07:04:11.556Z,1.42
2022-11-29T07:06:39.065Z,1.37
2022-11-29T07:09:11.415Z,1.33
2022-11-29T07:11:38.160Z,1.32
2022-11-29T07:14:04.654Z,1.39
2022-11-29T07:16:50.184Z,1.53
2022-11-29T07:19:40.918Z,1.41
2022-11-29T07:22:16.557Z,1.36
2022-11-29T07:25:03.837Z,1.34
2022-11-29T07:27:41.137Z,1.31
2022-11-29T07:30:11.190Z,1.43
2022-11-29T07:32:40.376Z,1.46
2022-11-29T07:35:29.481Z,1.36
2022-11-29T07:38:16.942Z,1.33
2022-11-29T07:40:59.717Z,1.28
2022-11-29T07:43:45.062Z,1.29
2022-11-29T07:46:11.693Z,1.46
2022-11-29T07:48:38.146Z,1.37
2022-11-29T07:51:04.642Z,1.35
2022-11-29T07:53:31.121Z,1.34
2022-11-29T07:55:57.890Z,1.31
2022-11-29T07:58:24.463Z,1.42
2022-11-29T08:00:51.181Z,1.48
2022-11-29T08:03:17.659Z,1.42
2022-11-29T08:05:45.918Z,1.37
2022-11-29T08:08:12.364Z,1.37
2022-11-29T08:10:40.964Z,1.48
2022-11-29T08:13:07.365Z,1.51
2022-11-29T08:15:33.886Z,1.44
2022-11-29T08:18:01.350Z,1.43
2022-11-29T08:20:27.781Z,1.40
2022-11-29T08:22:58.899Z,1.55
2022-11-29T08:25:26.218Z,1.50
2022-11-29T08:27:52.735Z,1.48
2022-11-29T08:30:22.216Z,1.45
2022-11-29T08:32:52.161Z,1.48
2022-11-29T08:35:19.914Z,1.60
2022-11-29T08:37:47.773Z,1.51
2022-11-29T08:40:14.541Z,1.49
2022-11-29T08:42:43.414Z,1.46
2022-11-29T08:45:10.449Z,1.46
2022-11-29T08:47:37.631Z,1.60
2022-11-29T08:50:12.428Z,1.58
2022-11-29T08:52:59.249Z,1.53
2022-11-29T08:55:26.956Z,1.51
2022-11-29T08:57:54.900Z,1.52
2022-11-29T09:00:21.390Z,1.64
2022-11-29T09:02:48.526Z,1.56
2022-11-29T09:05:15.852Z,1.53
2022-11-29T09:07:45.192Z,1.52
2022-11-29T09:10:12.224Z,1.51
2022-11-29T09:12:39.602Z,1.66
2022-11-29T09:15:07.278Z,1.63
2022-11-29T09:17:33.998Z,1.59
2022-11-29T09:20:00.575Z,1.57
2022-11-29T09:22:27.061Z,1.59
2022-11-29T09:24:53.665Z,1.65
2022-11-29T09:27:20.106Z,1.73
2022-11-29T09:29:46.878Z,1.71
2022-11-29T09:32:13.741Z,1.69
2022-11-29T09:34:44.400Z,1.67
2022-11-29T09:37:11.126Z,1.73
2022-11-29T09:39:42.636Z,1.84
2022-11-29T09:42:18.302Z,1.76
2022-11-29T09:44:59.258Z,1.72
2022-11-29T09:47:44.715Z,1.80
2022-11-29T09:50:26.750Z,1.92
2022-11-29T09:53:08.419Z,2.00
2022-11-29T09:55:56.117Z,2.08
2022-11-29T09:58:26.341Z,2.12
2022-11-29T10:00:56.493Z,2.16
2022-11-29T10:03:25.588Z,2.23
2022-11-29T10:05:59.199Z,2.22
2022-11-29T10:08:45.868Z,2.22
2022-11-29T10:11:16.267Z,2.25
2022-11-29T10:13:45.997Z,2.27
2022-11-29T10:16:20.851Z,2.27
2022-11-29T10:18:54.449Z,2.29
2022-11-29T10:21:23.185Z,2.32
2022-11-29T10:23:54.791Z,2.30
2022-11-29T10:26:22.991Z,2.32
2022-11-29T10:28:49.793Z,2.36
2022-11-29T10:31:16.238Z,2.34
2022-11-29T10:33:44.288Z,2.37
2022-11-29T10:36:26.027Z,2.40
2022-11-29T10:38:57.622Z,2.45
2022-11-29T10:41:24.867Z,2.43
2022-11-29T10:43:52.162Z,2.40
2022-11-29T10:46:28.789Z,2.42
2022-11-29T10:48:56.185Z,2.41
2022-11-29T10:51:22.618Z,2.40
2022-11-29T10:53:49.623Z,2.38
2022-11-29T10:56:18.944Z,2.42
2022-11-29T10:58:54.810Z,2.44
2022-11-29T11:01:21.848Z,2.40
2022-11-29T11:03:53.449Z,2.42
2022-11-29T11:06:24.433Z,2.42
2022-11-29T11:08:54.907Z,2.45
2022-11-29T11:11:31.062Z,2.49
2022-11-29T11:13:58.585Z,2.49
2022-11-29T11:16:26.872Z,2.42
2022-11-29T11:18:53.891Z,2.42
2022-11-29T11:21:21.598Z,2.46
2022-11-29T11:23:50.841Z,2.45
2022-11-29T11:26:17.341Z,2.45
2022-11-29T11:28:49.829Z,2.44
2022-11-29T11:31:24.829Z,2.41
2022-11-29T11:33:51.367Z,2.39
2022-11-29T11:36:20.607Z,2.40
2022-11-29T11:38:47.002Z,2.39
2022-11-29T11:41:21.021Z,2.39
2022-11-29T11:43:59.997Z,2.41
2022-11-29T11:46:58.877Z,2.46
2022-11-29T11:49:29.481Z,2.50
2022-11-29T11:51:57.264Z,2.53
2022-11-29T11:54:23.679Z,2.49
2022-11-29T11:56:50.150Z,2.53
2022-11-29T11:59:21.702Z,2.56
2022-11-29T12:01:48.206Z,2.56
2022-11-29T12:04:30.223Z,2.53
2022-11-29T12:06:58.653Z,2.50
2022-11-29T12:09:34.161Z,2.51
2022-11-29T12:12:00.612Z,2.45
2022-11-29T12:14:36.794Z,2.43
2022-11-29T12:17:18.538Z,2.46
2022-11-29T12:19:52.813Z,2.47
2022-11-29T12:22:23.523Z,2.46
2022-11-29T12:24:55.086Z,2.40
2022-11-29T12:27:21.667Z,2.43
2022-11-29T12:29:48.273Z,2.47
2022-11-29T12:32:39.310Z,2.49
2022-11-29T12:35:08.507Z,2.43
2022-11-29T12:37:34.874Z,2.48
2022-11-29T12:40:11.341Z,2.50
2022-11-29T12:42:40.898Z,2.45
2022-11-29T12:45:25.680Z,2.46
2022-11-29T12:47:54.315Z,2.46
2022-11-29T12:50:20.752Z,2.49
2022-11-29T12:52:56.327Z,2.51
2022-11-29T12:55:22.710Z,2.53
2022-11-29T12:58:04.347Z,2.51
2022-11-29T13:00:41.008Z,2.47
2022-11-29T13:03:24.848Z,2.46
2022-11-29T13:06:12.494Z,2.45
2022-11-29T13:08:44.967Z,2.43
2022-11-29T13:11:19.246Z,2.32
2022-11-29T13:13:48.418Z,2.06
2022-11-29T13:16:33.929Z,1.91
2022-11-29T13:19:05.107Z,2.01
2022-11-29T13:21:31.547Z,1.94
2022-11-29T13:24:08.236Z,1.88
2022-11-29T13:26:35.780Z,1.79
2022-11-29T13:29:03.455Z,1.91
2022-11-29T13:31:30.506Z,1.83
2022-11-29T13:34:01.010Z,1.70
2022-11-29T13:36:30.618Z,1.69
2022-11-29T13:39:09.214Z,1.83
2022-11-29T13:41:54.181Z,1.76
2022-11-29T13:44:27.602Z,1.65
2022-11-29T13:47:06.738Z,1.73
2022-11-29T13:49:52.929Z,1.80
2022-11-29T13:52:39.651Z,1.63
2022-11-29T13:55:12.335Z,1.60
2022-11-29T14:00:42.651Z,1.68
2022-11-29T14:03:18.459Z,1.63
2022-11-29T14:05:46.859Z,1.60
2022-11-29T14:09:10.399Z,1.72
2022-11-29T14:11:29.840Z,1.62
2022-11-29T14:14:08.459Z,1.57
2022-11-29T14:16:34.891Z,1.66
2022-11-29T14:19:10.397Z,1.71
2022-11-29T14:21:55.979Z,1.65
2022-11-29T14:24:37.855Z,1.68
2022-11-29T14:27:10.541Z,1.83
2022-11-29T14:29:55.273Z,1.76
2022-11-29T14:32:21.837Z,1.66
2022-11-29T14:34:53.083Z,1.70
2022-11-29T14:37:23.947Z,1.72
2022-11-29T14:39:52.790Z,1.63
2022-11-29T14:42:21.314Z,1.61
2022-11-29T14:44:52.832Z,1.74
2022-11-29T14:47:27.242Z,1.70
2022-11-29T14:49:55.428Z,1.64
2022-11-29T14:52:33.614Z,1.68
2022-11-29T14:55:02.767Z,1.80
2022-11-29T14:57:47.454Z,1.68
2022-11-29T15:00:15.611Z,1.66
2022-11-29T15:02:47.910Z,1.77
2022-11-29T15:05:19.557Z,1.80
2022-11-29T15:07:50.444Z,1.72
2022-11-29T15:10:22.761Z,1.72
2022-11-29T15:12:49.525Z,1.85
2022-11-29T15:15:15.904Z,1.83
2022-11-29T15:17:49.127Z,1.76
2022-11-29T15:20:15.497Z,1.68
2022-11-29T15:22:52.444Z,1.80
2022-11-29T15:25:23.135Z,1.74
2022-11-29T15:27:59.823Z,1.65
2022-11-29T15:30:31.414Z,1.65
2022-11-29T15:32:59.078Z,1.77
2022-11-29T15:35:25.607Z,1.72
2022-11-29T15:37:53.614Z,1.64
2022-11-29T15:40:22.787Z,1.66
2022-11-29T15:43:02.269Z,1.76
2022-11-29T15:45:31.687Z,1.77
2022-11-29T15:48:12.519Z,1.77
2022-11-29T15:50:40.147Z,1.69
2022-11-29T15:53:09.254Z,1.80
2022-11-29T15:55:36.129Z,1.81
2022-11-29T15:58:08.486Z,1.76
2022-11-29T16:00:35.963Z,1.75
2022-11-29T16:03:04.326Z,1.81
2022-11-29T16:05:37.785Z,1.84
2022-11-29T16:08:05.679Z,1.72
2022-11-29T16:10:36.111Z,1.77
2022-11-29T16:13:05.606Z,1.82
2022-11-29T16:15:37.287Z,1.84
2022-11-29T16:18:05.112Z,1.76
2022-11-29T16:20:31.728Z,1.70
2022-11-29T16:23:08.934Z,1.78
2022-11-29T16:25:48.281Z,1.86
2022-11-29T16:28:14.914Z,1.79
2022-11-29T16:30:42.520Z,1.79
2022-11-29T16:33:17.527Z,1.85
2022-11-29T16:35:44.022Z,1.93
2022-11-29T16:38:18.662Z,1.87
2022-11-29T16:41:02.503Z,1.83
2022-11-29T16:43:54.077Z,1.90
2022-11-29T16:46:28.980Z,1.95
2022-11-29T16:48:57.830Z,1.90
2022-11-29T16:51:44.465Z,1.87
2022-11-29T16:54:34.387Z,1.90
2022-11-29T16:57:05.711Z,1.94
2022-11-29T16:59:32.556Z,1.89
2022-11-29T17:01:59.103Z,1.86
2022-11-29T17:04:25.962Z,1.95
2022-11-29T17:06:56.211Z,1.97
2022-11-29T17:09:28.888Z,1.94
2022-11-29T17:11:56.010Z,1.90
2022-11-29T17:14:22.720Z,1.90
2022-11-29T17:16:49.812Z,2.02
2022-11-29T17:19:16.746Z,1.97
2022-11-29T17:21:43.302Z,1.94
2022-11-29T17:24:11.179Z,1.93
2022-11-29T17:26:37.638Z,2.03
2022-11-29T17:29:04.051Z,2.04
2022-11-29T17:31:30.628Z,1.96
2022-11-29T17:33:59.185Z,1.93
2022-11-29T17:36:25.671Z,1.98
2022-11-29T17:38:52.949Z,2.03
2022-11-29T17:41:22.455Z,2.02
2022-11-29T17:43:49.401Z,2.03
2022-11-29T17:46:20.073Z,1.97
2022-11-29T17:48:46.815Z,2.10
2022-11-29T17:51:43.881Z,2.09
2022-11-29T17:54:03.010Z,2.06
2022-11-29T17:56:29.960Z,2.10
2022-11-29T17:58:57.771Z,2.12
2022-11-29T18:01:25.410Z,2.22
2022-11-29T18:03:53.237Z,2.27
2022-11-29T18:06:21.221Z,2.31
2022-11-29T18:08:48.993Z,2.35
2022-11-29T18:11:15.443Z,2.38
2022-11-29T18:13:41.849Z,2.37
2022-11-29T18:16:09.989Z,2.25
2022-11-29T18:18:36.868Z,2.31
2022-11-29T18:21:05.330Z,2.38
2022-11-29T18:23:35.677Z,2.34
2022-11-29T18:26:03.859Z,2.37
2022-11-29T18:28:30.815Z,2.40
2022-11-29T18:30:57.244Z,2.35
2022-11-29T18:33:23.878Z,2.32
2022-11-29T18:35:50.667Z,2.39
2022-11-29T18:38:17.154Z,2.36
2022-11-29T18:40:45.843Z,2.34
2022-11-29T18:43:12.910Z,2.36
2022-11-29T18:45:39.355Z,2.35
2022-11-29T18:48:05.912Z,2.34
2022-11-29T18:50:34.941Z,2.39
2022-11-29T18:53:01.354Z,2.36
2022-11-29T18:55:27.997Z,2.33
2022-11-29T18:57:55.219Z,2.27
2022-11-29T19:00:21.977Z,2.23
2022-11-29T19:02:48.425Z,2.21
2022-11-29T19:05:14.894Z,2.21
2022-11-29T19:07:41.348Z,2.21
2022-11-29T19:10:08.255Z,2.21
2022-11-29T19:12:34.678Z,2.20
2022-11-29T19:15:01.079Z,2.27
2022-11-29T19:17:27.509Z,2.35
2022-11-29T19:19:53.897Z,2.23
2022-11-29T19:22:20.325Z,2.05
2022-11-29T19:24:47.122Z,1.97
2022-11-29T19:27:13.666Z,2.07
2022-11-29T19:29:40.261Z,2.13
2022-11-29T20:47:46.704Z,1.60
2022-11-29T20:50:24.208Z,1.58
2022-11-29T20:53:03.648Z,1.76
2022-11-29T20:55:30.241Z,1.69
2022-11-29T20:57:56.886Z,1.58
2022-11-29T21:00:23.474Z,1.54
2022-11-29T21:02:50.111Z,1.64
2022-11-29T21:05:16.762Z,1.74
2022-11-29T21:07:44.073Z,1.61
2022-11-29T21:10:10.958Z,1.58
2022-11-29T21:12:38.706Z,1.51
2022-11-29T21:15:05.695Z,1.60
2022-11-29T21:17:36.789Z,1.59
2022-11-29T21:20:03.950Z,1.55
2022-11-29T21:22:48.883Z,1.48
2022-11-29T21:25:21.290Z,1.40
2022-11-29T21:27:48.123Z,1.52
